createdAt,value
2019-03-02T00:00:04.556Z,977.61
2019-03-02T00:01:05.165Z,977.80
2019-03-02T00:02:05.304Z,977.61
2019-03-02T00:03:04.891Z,977.49
2019-03-02T00:04:10.998Z,977.44
2019-03-02T00:05:04.691Z,977.52
2019-03-02T00:06:04.843Z,977.52
2019-03-02T00:07:12.171Z,977.66
2019-03-02T00:08:04.835Z,977.61
2019-03-02T00:09:05.158Z,977.61
2019-03-02T00:10:09.899Z,977.61
2019-03-02T00:11:04.624Z,977.58
2019-03-02T00:12:05.308Z,977.47
2019-03-02T00:13:08.691Z,977.50
2019-03-02T00:14:04.742Z,977.55
2019-03-02T00:15:05.115Z,977.66
2019-03-02T00:16:08.538Z,977.61
2019-03-02T00:17:05.314Z,977.41
2019-03-02T00:18:05.420Z,977.55
2019-03-02T00:19:07.886Z,977.61
2019-03-02T00:20:04.607Z,977.50
2019-03-02T00:21:04.665Z,977.58
2019-03-02T00:22:07.949Z,977.61
2019-03-02T00:23:04.603Z,977.50
2019-03-02T00:24:05.335Z,977.44
2019-03-02T00:25:05.383Z,977.41
2019-03-02T00:26:10.115Z,977.41
2019-03-02T00:27:05.104Z,977.44
2019-03-02T00:28:05.199Z,977.44
2019-03-02T00:29:11.942Z,977.44
2019-03-02T00:30:04.545Z,977.47
2019-03-02T00:31:04.647Z,977.50
2019-03-02T00:32:10.669Z,977.50
2019-03-02T00:33:05.135Z,977.52
2019-03-02T00:34:04.570Z,977.58
2019-03-02T00:35:08.224Z,977.44
2019-03-02T00:36:04.973Z,977.55
2019-03-02T00:37:05.083Z,977.66
2019-03-02T00:38:08.696Z,977.50
2019-03-02T00:39:04.644Z,977.66
2019-03-02T00:40:05.170Z,977.61
2019-03-02T00:41:07.831Z,977.61
2019-03-02T00:42:04.485Z,977.68
2019-03-02T00:43:04.732Z,977.58
2019-03-02T00:44:05.159Z,977.55
2019-03-02T00:45:05.099Z,977.61
2019-03-02T00:46:04.695Z,977.61
2019-03-02T00:47:04.892Z,977.49
2019-03-02T00:48:10.998Z,977.58
2019-03-02T00:49:09.988Z,977.55
2019-03-02T00:50:05.322Z,977.76
2019-03-02T00:51:11.164Z,977.71
2019-03-02T00:52:05.033Z,977.60
2019-03-02T00:53:05.052Z,977.52
2019-03-02T00:54:11.310Z,977.68
2019-03-02T00:55:05.133Z,977.52
2019-03-02T00:56:09.119Z,977.52
2019-03-02T00:57:04.844Z,977.52
2019-03-02T00:58:04.994Z,977.58
2019-03-02T00:59:05.160Z,977.52
2019-03-02T01:00:04.854Z,977.57
2019-03-02T01:01:04.800Z,977.57
2019-03-02T01:02:06.007Z,977.57
2019-03-02T01:03:04.824Z,977.46
2019-03-02T01:04:05.410Z,977.55
2019-03-02T01:05:05.380Z,977.46
2019-03-02T01:06:04.593Z,977.41
2019-03-02T01:07:04.678Z,977.41
2019-03-02T01:08:05.297Z,977.27
2019-03-02T01:10:04.873Z,977.32
2019-03-02T01:11:05.135Z,977.49
2019-03-02T01:12:09.099Z,977.55
2019-03-02T01:13:04.705Z,977.33
2019-03-02T01:14:04.752Z,977.38
2019-03-02T01:15:09.257Z,977.38
2019-03-02T01:16:05.010Z,977.47
2019-03-02T01:17:05.055Z,977.35
2019-03-02T01:18:07.517Z,977.47
2019-03-02T01:19:05.152Z,977.50
2019-03-02T01:20:05.241Z,977.50
2019-03-02T01:21:05.460Z,977.55
2019-03-02T01:22:05.459Z,977.52
2019-03-02T01:23:04.469Z,977.44
2019-03-02T01:24:04.926Z,977.44
2019-03-02T01:25:04.878Z,977.33
2019-03-02T01:26:05.143Z,977.33
2019-03-02T01:27:04.641Z,977.38
2019-03-02T01:28:09.647Z,977.41
2019-03-02T01:29:05.450Z,977.41
2019-03-02T01:30:05.419Z,977.38
2019-03-02T01:31:06.323Z,977.33
2019-03-02T01:32:05.254Z,977.27
2019-03-02T01:33:05.356Z,977.36
2019-03-02T01:34:08.779Z,977.47
2019-03-02T01:35:05.383Z,977.38
2019-03-02T01:36:04.468Z,977.38
2019-03-02T01:37:08.973Z,977.41
2019-03-02T01:38:04.701Z,977.30
2019-03-02T01:39:05.070Z,977.44
2019-03-02T01:40:06.558Z,977.33
2019-03-02T01:41:05.281Z,977.30
2019-03-02T01:42:04.859Z,977.36
2019-03-02T01:43:05.765Z,977.33
2019-03-02T01:44:04.811Z,977.33
2019-03-02T01:45:05.041Z,977.33
2019-03-02T01:46:05.105Z,977.33
2019-03-02T01:47:05.215Z,977.22
2019-03-02T01:48:05.362Z,977.36
2019-03-02T01:49:04.662Z,977.27
2019-03-02T01:50:04.851Z,977.19
2019-03-02T01:51:04.595Z,977.30
2019-03-02T01:52:04.629Z,977.22
2019-03-02T01:53:10.786Z,977.33
2019-03-02T01:54:05.255Z,977.30
2019-03-02T01:55:05.241Z,977.19
2019-03-02T01:56:07.043Z,977.19
2019-03-02T01:57:04.738Z,977.19
2019-03-02T01:58:05.302Z,977.30
2019-03-02T01:59:05.205Z,976.99
2019-03-02T02:00:04.953Z,977.19
2019-03-02T02:01:05.066Z,977.16
2019-03-02T02:02:05.234Z,977.10
2019-03-02T02:03:04.877Z,977.10
2019-03-02T02:04:04.770Z,977.16
2019-03-02T02:05:05.100Z,977.11
2019-03-02T02:06:08.715Z,977.11
2019-03-02T02:07:05.454Z,976.99
2019-03-02T02:08:04.467Z,977.16
2019-03-02T02:09:06.813Z,977.11
2019-03-02T02:10:04.488Z,977.11
2019-03-02T02:11:04.958Z,977.19
2019-03-02T02:12:05.370Z,976.94
2019-03-02T02:13:07.176Z,977.16
2019-03-02T02:14:04.881Z,977.11
2019-03-02T02:15:05.058Z,977.08
2019-03-02T02:16:06.819Z,977.25
2019-03-02T02:17:04.828Z,977.13
2019-03-02T02:18:05.088Z,977.22
2019-03-02T02:19:05.117Z,977.22
2019-03-02T02:20:04.666Z,977.13
2019-03-02T02:21:04.963Z,977.13
2019-03-02T02:22:05.087Z,977.11
2019-03-02T02:23:05.274Z,977.16
2019-03-02T02:24:05.297Z,977.16
2019-03-02T02:25:04.854Z,977.11
2019-03-02T02:26:11.213Z,977.08
2019-03-02T02:27:05.042Z,977.11
2019-03-02T02:28:05.443Z,977.08
2019-03-02T02:29:09.923Z,977.05
2019-03-02T02:30:04.491Z,977.02
2019-03-02T02:31:07.944Z,977.13
2019-03-02T02:32:04.709Z,977.08
2019-03-02T02:33:06.342Z,976.99
2019-03-02T02:34:05.185Z,977.02
2019-03-02T02:35:05.174Z,977.11
2019-03-02T02:36:04.919Z,977.16
2019-03-02T02:37:05.003Z,977.00
2019-03-02T02:38:05.150Z,977.08
2019-03-02T02:39:04.611Z,976.97
2019-03-02T02:40:12.440Z,977.05
2019-03-02T02:41:05.444Z,977.02
2019-03-02T02:42:07.003Z,976.91
2019-03-02T02:43:04.788Z,976.97
2019-03-02T02:44:04.925Z,976.94
2019-03-02T02:45:04.596Z,977.03
2019-03-02T02:46:05.067Z,977.03
2019-03-02T02:47:12.744Z,977.03
2019-03-02T02:48:05.286Z,976.94
2019-03-02T02:49:10.408Z,976.94
2019-03-02T02:50:05.079Z,976.97
2019-03-02T02:51:12.342Z,976.80
2019-03-02T02:52:05.089Z,976.89
2019-03-02T02:53:08.616Z,976.86
2019-03-02T02:54:05.279Z,976.83
2019-03-02T02:55:04.756Z,976.80
2019-03-02T02:56:05.187Z,976.75
2019-03-02T02:57:04.515Z,976.80
2019-03-02T02:58:04.796Z,976.89
2019-03-02T02:59:05.024Z,976.86
2019-03-02T03:00:05.252Z,976.80
2019-03-02T03:01:04.551Z,976.97
2019-03-02T03:02:10.576Z,976.75
2019-03-02T03:03:04.776Z,976.89
2019-03-02T03:04:04.951Z,976.77
2019-03-02T03:05:05.276Z,976.89
2019-03-02T03:06:04.897Z,976.83
2019-03-02T03:07:13.811Z,976.83
2019-03-02T03:08:04.558Z,976.70
2019-03-02T03:09:11.285Z,976.86
2019-03-02T03:10:05.262Z,976.88
2019-03-02T03:11:08.260Z,976.91
2019-03-02T03:12:05.045Z,976.72
2019-03-02T03:13:05.330Z,976.80
2019-03-02T03:14:05.382Z,976.85
2019-03-02T03:15:04.540Z,976.83
2019-03-02T03:16:04.821Z,976.72
2019-03-02T03:17:04.870Z,976.72
2019-03-02T03:18:12.706Z,976.74
2019-03-02T03:19:05.137Z,976.58
2019-03-02T03:20:10.774Z,976.70
2019-03-02T03:21:04.548Z,976.64
2019-03-02T03:22:09.095Z,976.72
2019-03-02T03:23:04.985Z,976.82
2019-03-02T03:24:05.747Z,976.67
2019-03-02T03:25:05.563Z,976.70
2019-03-02T03:26:04.961Z,976.72
2019-03-02T03:27:13.089Z,976.85
2019-03-02T03:28:05.129Z,976.72
2019-03-02T03:29:11.422Z,976.67
2019-03-02T03:30:04.841Z,976.74
2019-03-02T03:31:05.227Z,976.88
2019-03-02T03:32:12.075Z,976.77
2019-03-02T03:33:05.092Z,976.80
2019-03-02T03:34:05.327Z,976.74
2019-03-02T03:35:19.299Z,976.77
2019-03-02T03:36:05.170Z,976.88
2019-03-02T03:37:12.995Z,976.91
2019-03-02T03:38:05.090Z,976.82
2019-03-02T03:39:09.367Z,976.77
2019-03-02T03:40:04.850Z,976.93
2019-03-02T03:41:06.924Z,976.88
2019-03-02T03:42:04.633Z,976.74
2019-03-02T03:43:05.245Z,976.88
2019-03-02T03:44:04.918Z,976.85
2019-03-02T03:45:06.079Z,976.88
2019-03-02T03:46:05.022Z,976.99
2019-03-02T03:47:05.254Z,976.77
2019-03-02T03:48:05.280Z,976.99
2019-03-02T03:49:04.518Z,976.85
2019-03-02T03:50:13.812Z,976.91
2019-03-02T03:51:05.102Z,976.85
2019-03-02T03:52:10.947Z,976.88
2019-03-02T03:53:04.640Z,976.82
2019-03-02T03:54:09.006Z,976.77
2019-03-02T03:55:04.805Z,976.79
2019-03-02T03:56:05.995Z,976.85
2019-03-02T03:57:04.739Z,976.88
2019-03-02T03:58:04.825Z,977.07
2019-03-02T03:59:04.953Z,976.99
2019-03-02T04:00:05.181Z,976.99
2019-03-02T04:01:05.408Z,977.05
2019-03-02T04:02:04.951Z,976.91
2019-03-02T04:03:13.595Z,976.88
2019-03-02T04:04:04.438Z,977.05
2019-03-02T04:05:09.969Z,976.93
2019-03-02T04:06:04.714Z,976.96
2019-03-02T04:07:08.080Z,977.05
2019-03-02T04:08:04.831Z,976.93
2019-03-02T04:09:10.090Z,976.93
2019-03-02T04:10:05.050Z,976.93
2019-03-02T04:11:06.368Z,976.99
2019-03-02T04:12:07.010Z,976.99
2019-03-02T04:13:06.699Z,976.88
2019-03-02T04:14:05.459Z,976.93
2019-03-02T04:15:04.605Z,976.82
2019-03-02T04:16:05.015Z,976.91
2019-03-02T04:17:05.087Z,976.88
2019-03-02T04:18:04.814Z,976.77
2019-03-02T04:19:04.973Z,976.88
2019-03-02T04:20:12.638Z,976.77
2019-03-02T04:21:05.203Z,976.82
2019-03-02T04:22:08.043Z,976.69
2019-03-02T04:23:04.871Z,976.69
2019-03-02T04:24:05.307Z,976.72
2019-03-02T04:25:05.460Z,976.82
2019-03-02T04:26:04.554Z,976.93
2019-03-02T04:27:05.220Z,976.88
2019-03-02T04:28:04.552Z,976.74
2019-03-02T04:29:11.890Z,976.76
2019-03-02T04:30:05.350Z,976.76
2019-03-02T04:31:10.520Z,976.79
2019-03-02T04:32:05.189Z,976.82
2019-03-02T04:33:07.553Z,976.76
2019-03-02T04:34:05.289Z,976.79
2019-03-02T04:35:05.466Z,976.69
2019-03-02T04:36:11.160Z,976.69
2019-03-02T04:37:04.778Z,976.72
2019-03-02T04:38:04.987Z,976.82
2019-03-02T04:39:05.219Z,976.69
2019-03-02T04:40:04.926Z,976.77
2019-03-02T04:41:05.270Z,976.85
2019-03-02T04:42:04.891Z,976.83
2019-03-02T04:43:05.057Z,976.67
2019-03-02T04:44:04.533Z,976.70
2019-03-02T04:45:06.155Z,976.83
2019-03-02T04:46:05.033Z,976.77
2019-03-02T04:47:04.523Z,976.70
2019-03-02T04:48:05.096Z,976.77
2019-03-02T04:49:14.491Z,976.91
2019-03-02T04:50:05.048Z,976.86
2019-03-02T04:51:05.064Z,976.83
2019-03-02T04:52:04.593Z,976.64
2019-03-02T04:53:05.065Z,976.73
2019-03-02T04:54:05.179Z,976.83
2019-03-02T04:55:05.469Z,976.77
2019-03-02T04:56:04.663Z,976.77
2019-03-02T04:57:04.768Z,976.74
2019-03-02T04:58:04.907Z,976.72
2019-03-02T04:59:05.417Z,976.72
2019-03-02T05:00:04.570Z,976.83
2019-03-02T05:01:07.862Z,976.88
2019-03-02T05:02:04.545Z,976.74
2019-03-02T05:03:05.000Z,976.77
2019-03-02T05:04:04.626Z,976.80
2019-03-02T05:05:08.244Z,976.74
2019-03-02T05:06:05.088Z,976.91
2019-03-02T05:07:04.663Z,976.82
2019-03-02T05:08:06.317Z,976.82
2019-03-02T05:09:05.543Z,976.77
2019-03-02T05:10:04.942Z,976.88
2019-03-02T05:11:05.144Z,976.88
2019-03-02T05:12:05.252Z,976.74
2019-03-02T05:13:05.207Z,976.77
2019-03-02T05:14:05.795Z,976.77
2019-03-02T05:15:04.621Z,976.88
2019-03-02T05:16:04.672Z,976.82
2019-03-02T05:17:08.467Z,976.77
2019-03-02T05:18:05.122Z,976.91
2019-03-02T05:19:05.499Z,976.82
2019-03-02T05:20:06.063Z,976.82
2019-03-02T05:21:05.158Z,976.91
2019-03-02T05:22:05.155Z,976.77
2019-03-02T05:23:05.247Z,976.91
2019-03-02T05:24:10.193Z,976.80
2019-03-02T05:25:05.653Z,976.91
2019-03-02T05:26:05.001Z,976.94
2019-03-02T05:27:04.535Z,976.74
2019-03-02T05:28:08.089Z,976.88
2019-03-02T05:29:04.767Z,976.74
2019-03-02T05:30:04.902Z,976.82
2019-03-02T05:31:07.126Z,976.82
2019-03-02T05:32:04.723Z,976.82
2019-03-02T05:33:05.090Z,976.96
2019-03-02T05:34:06.310Z,976.88
2019-03-02T05:35:15.374Z,976.82
2019-03-02T05:36:04.969Z,976.93
2019-03-02T05:37:05.397Z,976.74
2019-03-02T05:38:04.916Z,976.82
2019-03-02T05:39:05.106Z,976.79
2019-03-02T05:40:05.284Z,976.82
2019-03-02T05:41:05.337Z,976.88
2019-03-02T05:42:05.114Z,976.99
2019-03-02T05:43:05.197Z,976.88
2019-03-02T05:44:05.328Z,976.88
2019-03-02T05:45:04.802Z,976.77
2019-03-02T05:46:04.785Z,976.88
2019-03-02T05:47:05.080Z,976.94
2019-03-02T05:48:06.549Z,976.79
2019-03-02T05:49:05.377Z,976.96
2019-03-02T05:50:04.887Z,976.91
2019-03-02T05:51:07.734Z,976.93
2019-03-02T05:52:04.466Z,976.88
2019-03-02T05:53:04.837Z,976.85
2019-03-02T05:54:07.561Z,976.99
2019-03-02T05:55:05.419Z,976.82
2019-03-02T05:56:05.084Z,976.88
2019-03-02T05:57:05.814Z,976.91
2019-03-02T05:58:04.463Z,976.82
2019-03-02T05:59:05.117Z,976.79
2019-03-02T06:00:04.731Z,976.93
2019-03-02T06:01:05.354Z,976.82
2019-03-02T06:02:04.879Z,976.88
2019-03-02T06:03:05.208Z,976.88
2019-03-02T06:04:05.430Z,976.74
2019-03-02T06:05:05.620Z,976.91
2019-03-02T06:06:04.644Z,976.82
2019-03-02T06:07:05.411Z,976.67
2019-03-02T06:08:04.863Z,976.88
2019-03-02T06:09:13.704Z,976.88
2019-03-02T06:10:05.438Z,976.88
2019-03-02T06:11:07.165Z,976.72
2019-03-02T06:12:04.860Z,976.91
2019-03-02T06:13:05.070Z,976.97
2019-03-02T06:14:05.168Z,976.91
2019-03-02T06:15:08.634Z,976.85
2019-03-02T06:16:05.383Z,976.91
2019-03-02T06:17:04.530Z,976.97
2019-03-02T06:18:08.774Z,976.88
2019-03-02T06:19:04.454Z,976.91
2019-03-02T06:20:05.290Z,976.82
2019-03-02T06:21:10.743Z,976.94
2019-03-02T06:22:04.597Z,976.85
2019-03-02T06:23:04.705Z,976.77
2019-03-02T06:24:06.555Z,977.16
2019-03-02T06:25:04.620Z,976.96
2019-03-02T06:26:04.655Z,976.85
2019-03-02T06:27:10.826Z,977.05
2019-03-02T06:28:05.055Z,976.96
2019-03-02T06:29:05.219Z,976.88
2019-03-02T06:30:08.324Z,976.91
2019-03-02T06:31:05.050Z,976.88
2019-03-02T06:32:04.743Z,976.85
2019-03-02T06:33:09.345Z,976.83
2019-03-02T06:34:05.395Z,976.91
2019-03-02T06:35:04.863Z,976.80
2019-03-02T06:36:10.046Z,976.82
2019-03-02T06:37:04.855Z,976.83
2019-03-02T06:38:04.593Z,976.85
2019-03-02T06:39:09.090Z,976.94
2019-03-02T06:40:04.923Z,976.97
2019-03-02T06:41:04.843Z,976.88
2019-03-02T06:42:09.790Z,976.72
2019-03-02T06:43:09.661Z,976.83
2019-03-02T06:44:04.957Z,976.88
2019-03-02T06:45:08.894Z,976.91
2019-03-02T06:46:04.470Z,976.69
2019-03-02T06:47:06.159Z,976.77
2019-03-02T06:48:09.528Z,976.74
2019-03-02T06:49:07.462Z,976.91
2019-03-02T06:50:04.625Z,976.72
2019-03-02T06:51:11.174Z,976.79
2019-03-02T06:52:05.067Z,976.77
2019-03-02T06:53:05.378Z,976.88
2019-03-02T06:54:04.677Z,976.99
2019-03-02T06:55:04.682Z,976.80
2019-03-02T06:56:05.244Z,976.82
2019-03-02T06:57:05.364Z,976.91
2019-03-02T06:58:04.746Z,976.80
2019-03-02T06:59:05.354Z,976.91
2019-03-02T07:00:05.218Z,977.02
2019-03-02T07:01:04.718Z,976.91
2019-03-02T07:02:05.181Z,976.74
2019-03-02T07:03:10.048Z,976.88
2019-03-02T07:04:04.847Z,976.88
2019-03-02T07:05:04.473Z,976.93
2019-03-02T07:06:08.499Z,976.93
2019-03-02T07:07:06.575Z,976.96
2019-03-02T07:08:04.579Z,976.88
2019-03-02T07:09:09.400Z,976.82
2019-03-02T07:10:05.205Z,976.77
2019-03-02T07:11:05.196Z,976.85
2019-03-02T07:12:09.373Z,976.82
2019-03-02T07:13:05.176Z,976.88
2019-03-02T07:14:05.509Z,976.76
2019-03-02T07:15:08.183Z,976.88
2019-03-02T07:16:05.122Z,976.91
2019-03-02T07:17:05.247Z,976.90
2019-03-02T07:18:07.986Z,976.88
2019-03-02T07:19:04.949Z,976.88
2019-03-02T07:20:05.111Z,976.90
2019-03-02T07:21:06.936Z,976.96
2019-03-02T07:22:04.784Z,976.93
2019-03-02T07:23:05.099Z,976.93
2019-03-02T07:24:04.668Z,976.99
2019-03-02T07:25:06.334Z,976.99
2019-03-02T07:26:05.022Z,976.93
2019-03-02T07:27:05.606Z,977.10
2019-03-02T07:28:07.408Z,977.02
2019-03-02T07:29:10.210Z,976.99
2019-03-02T07:30:04.645Z,976.93
2019-03-02T07:31:04.847Z,976.96
2019-03-02T07:32:04.943Z,976.93
2019-03-02T07:33:05.119Z,976.96
2019-03-02T07:34:09.793Z,976.85
2019-03-02T07:35:06.052Z,977.02
2019-03-02T07:36:04.834Z,976.72
2019-03-02T07:37:09.026Z,976.90
2019-03-02T07:38:05.113Z,977.04
2019-03-02T07:39:05.271Z,976.87
2019-03-02T07:40:09.027Z,976.82
2019-03-02T07:41:04.911Z,976.93
2019-03-02T07:42:05.280Z,976.96
2019-03-02T07:43:09.639Z,976.99
2019-03-02T07:44:04.495Z,976.79
2019-03-02T07:45:04.683Z,976.79
2019-03-02T07:46:11.750Z,976.79
2019-03-02T07:47:04.635Z,976.99
2019-03-02T07:48:04.810Z,976.82
2019-03-02T07:49:04.646Z,976.79
2019-03-02T07:50:04.856Z,976.84
2019-03-02T07:51:06.519Z,976.90
2019-03-02T07:52:05.409Z,976.87
2019-03-02T07:53:04.990Z,976.93
2019-03-02T07:54:07.325Z,976.95
2019-03-02T07:55:05.272Z,976.95
2019-03-02T07:56:04.624Z,976.87
2019-03-02T07:57:08.846Z,976.92
2019-03-02T07:58:04.694Z,976.87
2019-03-02T07:59:05.481Z,976.90
2019-03-02T08:00:06.628Z,977.04
2019-03-02T08:01:05.368Z,976.92
2019-03-02T08:02:07.325Z,976.90
2019-03-02T08:03:05.403Z,977.06
2019-03-02T08:04:04.846Z,976.90
2019-03-02T08:05:05.384Z,976.92
2019-03-02T08:06:05.427Z,976.98
2019-03-02T08:07:06.217Z,977.01
2019-03-02T08:08:06.965Z,977.01
2019-03-02T08:09:05.101Z,977.01
2019-03-02T08:10:05.344Z,977.03
2019-03-02T08:11:05.447Z,977.00
2019-03-02T08:12:04.676Z,976.95
2019-03-02T08:13:05.141Z,977.03
2019-03-02T08:14:04.577Z,976.92
2019-03-02T08:15:04.938Z,977.06
2019-03-02T08:16:05.017Z,977.23
2019-03-02T08:17:04.820Z,977.06
2019-03-02T08:18:05.187Z,977.17
2019-03-02T08:19:05.254Z,977.14
2019-03-02T08:20:05.095Z,977.09
2019-03-02T08:21:04.787Z,977.09
2019-03-02T08:22:10.986Z,977.00
2019-03-02T08:23:04.613Z,977.17
2019-03-02T08:24:05.308Z,977.28
2019-03-02T08:25:04.533Z,977.11
2019-03-02T08:26:05.647Z,977.22
2019-03-02T08:27:04.627Z,977.17
2019-03-02T08:28:09.919Z,977.00
2019-03-02T08:29:09.727Z,977.05
2019-03-02T08:30:05.037Z,977.02
2019-03-02T08:31:09.871Z,977.08
2019-03-02T08:32:05.389Z,977.10
2019-03-02T08:33:04.552Z,977.22
2019-03-02T08:34:09.658Z,977.02
2019-03-02T08:35:04.618Z,977.22
2019-03-02T08:36:04.645Z,977.10
2019-03-02T08:37:05.010Z,977.10
2019-03-02T08:38:06.341Z,977.16
2019-03-02T08:39:10.565Z,977.10
2019-03-02T08:40:04.601Z,977.10
2019-03-02T08:41:04.806Z,977.04
2019-03-02T08:42:05.378Z,977.21
2019-03-02T08:43:04.835Z,976.99
2019-03-02T08:44:04.894Z,977.13
2019-03-02T08:45:05.491Z,976.93
2019-03-02T08:46:08.749Z,977.04
2019-03-02T08:47:09.044Z,977.07
2019-03-02T08:48:05.325Z,977.13
2019-03-02T08:49:10.013Z,977.01
2019-03-02T08:50:05.499Z,977.01
2019-03-02T08:51:04.866Z,976.93
2019-03-02T08:52:05.537Z,977.01
2019-03-02T08:53:05.204Z,977.01
2019-03-02T08:54:05.482Z,976.98
2019-03-02T08:55:04.705Z,976.90
2019-03-02T08:56:10.773Z,976.93
2019-03-02T08:57:04.795Z,977.04
2019-03-02T08:58:05.319Z,976.90
2019-03-02T08:59:05.354Z,976.87
2019-03-02T09:00:04.845Z,976.84
2019-03-02T09:01:04.711Z,976.87
2019-03-02T09:02:05.595Z,976.95
2019-03-02T09:03:04.656Z,976.81
2019-03-02T09:04:04.705Z,976.95
2019-03-02T09:05:05.023Z,976.95
2019-03-02T09:06:12.020Z,976.95
2019-03-02T09:07:11.370Z,976.87
2019-03-02T09:08:05.305Z,976.95
2019-03-02T09:09:05.407Z,977.06
2019-03-02T09:10:04.952Z,976.89
2019-03-02T09:11:05.116Z,976.98
2019-03-02T09:12:04.611Z,976.89
2019-03-02T09:13:05.245Z,976.83
2019-03-02T09:14:04.582Z,976.92
2019-03-02T09:15:05.304Z,976.86
2019-03-02T09:16:06.713Z,976.89
2019-03-02T09:17:04.618Z,976.80
2019-03-02T09:18:04.941Z,976.83
2019-03-02T09:19:05.277Z,976.73
2019-03-02T09:20:05.027Z,976.74
2019-03-02T09:21:05.398Z,976.77
2019-03-02T09:22:04.577Z,976.72
2019-03-02T09:23:05.158Z,976.72
2019-03-02T09:24:05.189Z,976.74
2019-03-02T09:25:05.333Z,976.66
2019-03-02T09:26:05.918Z,976.82
2019-03-02T09:27:05.178Z,976.85
2019-03-02T09:28:04.947Z,976.79
2019-03-02T09:29:10.111Z,976.85
2019-03-02T09:30:05.547Z,976.90
2019-03-02T09:31:04.736Z,976.82
2019-03-02T09:32:04.966Z,976.82
2019-03-02T09:33:05.508Z,976.71
2019-03-02T09:34:05.427Z,976.82
2019-03-02T09:35:05.330Z,976.76
2019-03-02T09:36:05.442Z,976.74
2019-03-02T09:37:08.107Z,976.81
2019-03-02T09:38:05.100Z,976.84
2019-03-02T09:39:05.403Z,976.74
2019-03-02T09:40:06.471Z,976.71
2019-03-02T09:41:05.211Z,976.65
2019-03-02T09:42:04.707Z,976.75
2019-03-02T09:43:04.999Z,976.75
2019-03-02T09:44:04.932Z,976.83
2019-03-02T09:45:11.486Z,976.83
2019-03-02T09:46:07.234Z,976.73
2019-03-02T09:47:08.948Z,976.70
2019-03-02T09:48:05.155Z,976.70
2019-03-02T09:49:07.669Z,976.74
2019-03-02T09:50:05.411Z,976.80
2019-03-02T09:51:04.688Z,976.80
2019-03-02T09:52:04.594Z,976.72
2019-03-02T09:53:05.031Z,976.79
2019-03-02T09:54:05.339Z,976.72
2019-03-02T09:55:04.717Z,976.85
2019-03-02T09:56:05.346Z,976.82
2019-03-02T09:57:04.881Z,976.76
2019-03-02T09:58:06.776Z,976.72
2019-03-02T09:59:05.427Z,976.69
2019-03-02T10:00:05.149Z,976.72
2019-03-02T10:01:05.318Z,976.85
2019-03-02T10:02:04.899Z,976.85
2019-03-02T10:03:05.236Z,976.87
2019-03-02T10:04:06.615Z,976.76
2019-03-02T10:05:05.387Z,976.79
2019-03-02T10:06:04.573Z,976.66
2019-03-02T10:07:04.638Z,976.76
2019-03-02T10:08:14.160Z,976.74
2019-03-02T10:09:04.565Z,976.76
2019-03-02T10:10:04.641Z,976.75
2019-03-02T10:11:07.395Z,976.68
2019-03-02T10:12:05.201Z,976.62
2019-03-02T10:13:05.159Z,976.78
2019-03-02T10:14:05.340Z,976.78
2019-03-02T10:15:04.573Z,976.70
2019-03-02T10:16:05.999Z,976.77
2019-03-02T10:17:04.839Z,976.67
2019-03-02T10:18:05.415Z,976.73
2019-03-02T10:19:05.605Z,976.73
2019-03-02T10:20:06.562Z,976.67
2019-03-02T10:21:05.502Z,976.64
2019-03-02T10:22:04.819Z,976.61
2019-03-02T10:23:06.912Z,976.64
2019-03-02T10:24:04.834Z,976.72
2019-03-02T10:25:05.118Z,976.74
2019-03-02T10:26:08.795Z,976.72
2019-03-02T10:27:06.335Z,976.66
2019-03-02T10:28:05.425Z,976.82
2019-03-02T10:29:10.800Z,976.69
2019-03-02T10:30:04.635Z,976.74
2019-03-02T10:31:06.955Z,976.74
2019-03-02T10:32:04.877Z,976.74
2019-03-02T10:33:04.986Z,976.54
2019-03-02T10:34:07.713Z,976.71
2019-03-02T10:35:05.479Z,976.63
2019-03-02T10:36:04.523Z,976.68
2019-03-02T10:37:08.686Z,976.68
2019-03-02T10:38:05.383Z,976.68
2019-03-02T10:39:04.573Z,976.74
2019-03-02T10:40:08.813Z,976.76
2019-03-02T10:41:04.665Z,976.74
2019-03-02T10:42:05.050Z,976.68
2019-03-02T10:43:10.598Z,976.71
2019-03-02T10:44:05.556Z,976.68
2019-03-02T10:45:04.982Z,976.65
2019-03-02T10:46:05.037Z,976.71
2019-03-02T10:47:05.153Z,976.68
2019-03-02T10:48:05.468Z,976.62
2019-03-02T10:49:12.288Z,976.71
2019-03-02T10:50:05.418Z,976.65
2019-03-02T10:51:04.524Z,976.62
2019-03-02T10:52:04.700Z,976.65
2019-03-02T10:53:05.116Z,976.63
2019-03-02T10:54:05.210Z,976.62
2019-03-02T10:55:13.297Z,976.71
2019-03-02T10:56:06.430Z,976.60
2019-03-02T10:57:05.093Z,976.54
2019-03-02T10:58:04.563Z,976.71
2019-03-02T10:59:04.913Z,976.57
2019-03-02T11:00:04.628Z,976.74
2019-03-02T11:01:08.555Z,976.60
2019-03-02T11:02:04.649Z,976.65
2019-03-02T11:03:04.685Z,976.59
2019-03-02T11:04:08.268Z,976.71
2019-03-02T11:05:04.905Z,976.62
2019-03-02T11:06:07.074Z,976.62
2019-03-02T11:07:09.460Z,976.51
2019-03-02T11:08:04.579Z,976.62
2019-03-02T11:09:05.314Z,976.70
2019-03-02T11:10:05.136Z,976.47
2019-03-02T11:11:05.248Z,976.50
2019-03-02T11:12:07.983Z,976.47
2019-03-02T11:13:05.126Z,976.59
2019-03-02T11:14:04.449Z,976.44
2019-03-02T11:15:08.648Z,976.47
2019-03-02T11:16:05.267Z,976.41
2019-03-02T11:17:04.645Z,976.44
2019-03-02T11:18:04.959Z,976.47
2019-03-02T11:19:11.378Z,976.49
2019-03-02T11:20:05.396Z,976.35
2019-03-02T11:21:05.192Z,976.46
2019-03-02T11:22:05.397Z,976.41
2019-03-02T11:23:04.497Z,976.35
2019-03-02T11:24:04.687Z,976.32
2019-03-02T11:25:05.162Z,976.23
2019-03-02T11:26:05.206Z,976.37
2019-03-02T11:27:04.798Z,976.32
2019-03-02T11:28:04.812Z,976.34
2019-03-02T11:29:05.177Z,976.31
2019-03-02T11:30:05.241Z,976.31
2019-03-02T11:31:04.795Z,976.37
2019-03-02T11:32:05.001Z,976.28
2019-03-02T11:33:04.546Z,976.34
2019-03-02T11:34:04.585Z,976.39
2019-03-02T11:35:10.340Z,976.31
2019-03-02T11:36:04.995Z,976.39
2019-03-02T11:37:04.527Z,976.39
2019-03-02T11:38:04.729Z,976.39
2019-03-02T11:39:05.269Z,976.33
2019-03-02T11:40:04.852Z,976.47
2019-03-02T11:41:10.308Z,976.30
2019-03-02T11:42:04.904Z,976.22
2019-03-02T11:43:05.621Z,976.25
2019-03-02T11:44:04.616Z,976.33
2019-03-02T11:45:04.839Z,976.30
2019-03-02T11:46:04.969Z,976.19
2019-03-02T11:47:05.419Z,976.33
2019-03-02T11:48:04.706Z,976.27
2019-03-02T11:49:04.801Z,976.16
2019-03-02T11:50:04.931Z,976.10
2019-03-02T11:51:05.252Z,976.24
2019-03-02T11:52:04.666Z,976.16
2019-03-02T11:53:04.976Z,976.18
2019-03-02T11:54:05.404Z,976.30
2019-03-02T11:55:05.620Z,976.30
2019-03-02T11:56:07.612Z,976.13
2019-03-02T11:57:05.342Z,976.04
2019-03-02T11:58:05.042Z,976.12
2019-03-02T11:59:09.275Z,976.24
2019-03-02T12:00:05.276Z,976.21
2019-03-02T12:01:04.571Z,976.21
2019-03-02T12:02:04.843Z,976.15
2019-03-02T12:03:05.039Z,976.04
2019-03-02T12:04:04.825Z,976.10
2019-03-02T12:05:04.892Z,976.21
2019-03-02T12:06:07.236Z,976.07
2019-03-02T12:07:04.844Z,976.10
2019-03-02T12:08:05.324Z,976.01
2019-03-02T12:09:04.624Z,976.18
2019-03-02T12:10:06.322Z,976.04
2019-03-02T12:11:10.375Z,976.04
2019-03-02T12:12:05.233Z,976.01
2019-03-02T12:13:04.909Z,976.21
2019-03-02T12:14:09.919Z,976.13
2019-03-02T12:15:04.799Z,976.01
2019-03-02T12:16:04.943Z,975.93
2019-03-02T12:17:06.402Z,976.10
2019-03-02T12:18:04.918Z,975.90
2019-03-02T12:19:05.764Z,975.93
2019-03-02T12:20:09.751Z,975.93
2019-03-02T12:21:04.620Z,975.96
2019-03-02T12:22:04.725Z,975.82
2019-03-02T12:23:05.422Z,975.96
2019-03-02T12:24:12.138Z,976.01
2019-03-02T12:25:05.555Z,975.96
2019-03-02T12:26:10.913Z,975.82
2019-03-02T12:27:04.996Z,975.84
2019-03-02T12:28:05.538Z,975.87
2019-03-02T12:29:14.840Z,975.96